sensor_id;sensor_type;location;lat;lon;timestamp;temperature;humidity
26537;DHT22;14204;51.262;5.488;2022-10-16T00:00:39;15.20;99.90
26537;DHT22;14204;51.262;5.488;2022-10-16T00:03:06;15.10;99.90
26537;DHT22;14204;51.262;5.488;2022-10-16T00:05:32;15.10;99.90
26537;DHT22;14204;51.262;5.488;2022-10-16T00:07:57;15.10;99.90
26537;DHT22;14204;51.262;5.488;2022-10-16T00:10:23;15.20;99.90
26537;DHT22;14204;51.262;5.488;2022-10-16T00:12:49;15.10;99.90
26537;DHT22;14204;51.262;5.488;2022-10-16T00:15:15;15.10;99.90
26537;DHT22;14204;51.262;5.488;2022-10-16T00:17:41;15.10;99.90
26537;DHT22;14204;51.262;5.488;2022-10-16T00:20:07;15.20;99.90
26537;DHT22;14204;51.262;5.488;2022-10-16T00:22:33;15.10;99.90
26537;DHT22;14204;51.262;5.488;2022-10-16T00:24:59;15.10;99.90
26537;DHT22;14204;51.262;5.488;2022-10-16T00:27:24;15.10;99.90
26537;DHT22;14204;51.262;5.488;2022-10-16T00:29:51;15.10;99.90
26537;DHT22;14204;51.262;5.488;2022-10-16T00:32:20;15.10;99.90
26537;DHT22;14204;51.262;5.488;2022-10-16T00:34:46;15.10;99.90
26537;DHT22;14204;51.262;5.488;2022-10-16T00:37:12;15.20;99.90
26537;DHT22;14204;51.262;5.488;2022-10-16T00:39:38;15.10;99.90
26537;DHT22;14204;51.262;5.488;2022-10-16T00:42:04;15.10;99.90
26537;DHT22;14204;51.262;5.488;2022-10-16T00:44:49;15.10;99.90
26537;DHT22;14204;51.262;5.488;2022-10-16T00:49:53;15.10;99.90
26537;DHT22;14204;51.262;5.488;2022-10-16T00:52:21;15.10;99.90
26537;DHT22;14204;51.262;5.488;2022-10-16T00:54:47;15.10;99.90
26537;DHT22;14204;51.262;5.488;2022-10-16T00:57:14;15.00;99.90
26537;DHT22;14204;51.262;5.488;2022-10-16T00:59:41;15.00;99.90
26537;DHT22;14204;51.262;5.488;2022-10-16T01:02:12;15.00;99.90
26537;DHT22;14204;51.262;5.488;2022-10-16T01:04:47;15.00;99.90
26537;DHT22;14204;51.262;5.488;2022-10-16T01:07:28;15.00;99.90
26537;DHT22;14204;51.262;5.488;2022-10-16T01:10:09;15.00;99.90
26537;DHT22;14204;51.262;5.488;2022-10-16T01:13:01;15.00;99.90
26537;DHT22;14204;51.262;5.488;2022-10-16T01:15:47;14.90;99.90
26537;DHT22;14204;51.262;5.488;2022-10-16T01:18:37;14.90;99.90
26537;DHT22;14204;51.262;5.488;2022-10-16T01:21:07;14.90;99.90
26537;DHT22;14204;51.262;5.488;2022-10-16T01:26:44;14.90;99.90
26537;DHT22;14204;51.262;5.488;2022-10-16T01:31:48;14.90;99.90
26537;DHT22;14204;51.262;5.488;2022-10-16T01:34:19;14.90;99.90
26537;DHT22;14204;51.262;5.488;2022-10-16T01:36:53;14.90;99.90
26537;DHT22;14204;51.262;5.488;2022-10-16T01:39:24;14.90;99.90
26537;DHT22;14204;51.262;5.488;2022-10-16T01:42:11;14.90;99.90
26537;DHT22;14204;51.262;5.488;2022-10-16T01:44:38;14.90;99.90
26537;DHT22;14204;51.262;5.488;2022-10-16T01:47:06;14.80;99.90
26537;DHT22;14204;51.262;5.488;2022-10-16T01:49:35;14.80;99.90
26537;DHT22;14204;51.262;5.488;2022-10-16T01:52:05;14.80;99.90
26537;DHT22;14204;51.262;5.488;2022-10-16T01:54:33;14.80;99.90
26537;DHT22;14204;51.262;5.488;2022-10-16T01:57:01;14.80;99.90
26537;DHT22;14204;51.262;5.488;2022-10-16T01:59:30;14.70;99.90
26537;DHT22;14204;51.262;5.488;2022-10-16T02:01:59;14.70;99.90
26537;DHT22;14204;51.262;5.488;2022-10-16T02:04:53;14.70;99.90
26537;DHT22;14204;51.262;5.488;2022-10-16T02:07:17;14.70;99.90
26537;DHT22;14204;51.262;5.488;2022-10-16T02:09:43;14.70;99.90
26537;DHT22;14204;51.262;5.488;2022-10-16T02:12:21;14.60;99.90
26537;DHT22;14204;51.262;5.488;2022-10-16T02:14:49;14.70;99.90
26537;DHT22;14204;51.262;5.488;2022-10-16T02:17:16;14.70;99.90
26537;DHT22;14204;51.262;5.488;2022-10-16T02:19:43;14.70;99.90
26537;DHT22;14204;51.262;5.488;2022-10-16T02:22:17;14.60;99.90
26537;DHT22;14204;51.262;5.488;2022-10-16T02:25:01;14.60;99.90
26537;DHT22;14204;51.262;5.488;2022-10-16T02:27:55;14.60;99.90
26537;DHT22;14204;51.262;5.488;2022-10-16T02:30:29;14.60;99.90
26537;DHT22;14204;51.262;5.488;2022-10-16T02:32:56;14.50;99.90
26537;DHT22;14204;51.262;5.488;2022-10-16T02:35:24;14.60;99.90
26537;DHT22;14204;51.262;5.488;2022-10-16T02:37:50;14.60;99.90
26537;DHT22;14204;51.262;5.488;2022-10-16T02:40:17;14.50;99.90
26537;DHT22;14204;51.262;5.488;2022-10-16T02:42:43;14.40;99.90
26537;DHT22;14204;51.262;5.488;2022-10-16T02:45:10;14.50;99.90
26537;DHT22;14204;51.262;5.488;2022-10-16T02:47:36;14.40;99.90
26537;DHT22;14204;51.262;5.488;2022-10-16T02:50:03;14.50;99.90
26537;DHT22;14204;51.262;5.488;2022-10-16T02:52:29;14.50;99.90
26537;DHT22;14204;51.262;5.488;2022-10-16T02:54:54;14.50;99.90
26537;DHT22;14204;51.262;5.488;2022-10-16T02:57:20;14.50;99.90
26537;DHT22;14204;51.262;5.488;2022-10-16T02:59:45;14.40;99.90
26537;DHT22;14204;51.262;5.488;2022-10-16T03:02:11;14.40;99.90
26537;DHT22;14204;51.262;5.488;2022-10-16T03:04:37;14.50;99.90
26537;DHT22;14204;51.262;5.488;2022-10-16T03:07:03;14.50;99.90
26537;DHT22;14204;51.262;5.488;2022-10-16T03:09:28;14.40;99.90
26537;DHT22;14204;51.262;5.488;2022-10-16T03:11:54;14.40;99.90
26537;DHT22;14204;51.262;5.488;2022-10-16T03:14:19;14.40;99.90
26537;DHT22;14204;51.262;5.488;2022-10-16T03:16:45;14.50;99.90
26537;DHT22;14204;51.262;5.488;2022-10-16T03:19:11;14.50;99.90
26537;DHT22;14204;51.262;5.488;2022-10-16T03:21:36;14.50;99.90
26537;DHT22;14204;51.262;5.488;2022-10-16T03:24:02;14.40;99.90
26537;DHT22;14204;51.262;5.488;2022-10-16T03:26:28;14.50;99.90
26537;DHT22;14204;51.262;5.488;2022-10-16T03:28:53;14.40;99.90
26537;DHT22;14204;51.262;5.488;2022-10-16T03:31:19;14.40;99.90
26537;DHT22;14204;51.262;5.488;2022-10-16T03:33:44;14.50;99.90
26537;DHT22;14204;51.262;5.488;2022-10-16T03:36:10;14.50;99.90
26537;DHT22;14204;51.262;5.488;2022-10-16T03:38:35;14.50;99.90
26537;DHT22;14204;51.262;5.488;2022-10-16T03:41:01;14.50;99.90
26537;DHT22;14204;51.262;5.488;2022-10-16T03:43:27;14.40;99.90
26537;DHT22;14204;51.262;5.488;2022-10-16T03:45:52;14.40;99.90
26537;DHT22;14204;51.262;5.488;2022-10-16T03:48:19;14.50;99.90
26537;DHT22;14204;51.262;5.488;2022-10-16T03:50:44;14.40;99.90
26537;DHT22;14204;51.262;5.488;2022-10-16T03:53:11;14.40;99.90
26537;DHT22;14204;51.262;5.488;2022-10-16T03:55:37;14.40;99.90
26537;DHT22;14204;51.262;5.488;2022-10-16T03:58:02;14.40;99.90
26537;DHT22;14204;51.262;5.488;2022-10-16T04:00:28;14.40;99.90
26537;DHT22;14204;51.262;5.488;2022-10-16T04:02:54;14.50;99.90
26537;DHT22;14204;51.262;5.488;2022-10-16T04:05:19;14.50;99.90
26537;DHT22;14204;51.262;5.488;2022-10-16T04:07:45;14.50;99.90
26537;DHT22;14204;51.262;5.488;2022-10-16T04:10:10;14.40;99.90
26537;DHT22;14204;51.262;5.488;2022-10-16T04:12:36;14.50;99.90
26537;DHT22;14204;51.262;5.488;2022-10-16T04:15:02;14.40;99.90
26537;DHT22;14204;51.262;5.488;2022-10-16T04:17:28;14.40;99.90
26537;DHT22;14204;51.262;5.488;2022-10-16T04:19:53;14.40;99.90
26537;DHT22;14204;51.262;5.488;2022-10-16T04:22:19;14.50;99.90
26537;DHT22;14204;51.262;5.488;2022-10-16T04:24:44;14.50;99.90
26537;DHT22;14204;51.262;5.488;2022-10-16T04:27:10;14.50;99.90
26537;DHT22;14204;51.262;5.488;2022-10-16T04:29:35;14.50;99.90
26537;DHT22;14204;51.262;5.488;2022-10-16T04:32:01;14.50;99.90
26537;DHT22;14204;51.262;5.488;2022-10-16T04:34:26;14.60;99.90
26537;DHT22;14204;51.262;5.488;2022-10-16T04:36:52;14.60;99.90
26537;DHT22;14204;51.262;5.488;2022-10-16T04:39:18;14.60;99.90
26537;DHT22;14204;51.262;5.488;2022-10-16T04:41:43;14.40;99.90
26537;DHT22;14204;51.262;5.488;2022-10-16T04:44:09;14.40;99.90
26537;DHT22;14204;51.262;5.488;2022-10-16T04:46:35;14.50;99.90
26537;DHT22;14204;51.262;5.488;2022-10-16T04:49:00;14.40;99.90
26537;DHT22;14204;51.262;5.488;2022-10-16T04:51:26;14.50;99.90
26537;DHT22;14204;51.262;5.488;2022-10-16T04:53:53;14.60;99.90
26537;DHT22;14204;51.262;5.488;2022-10-16T04:56:19;14.60;99.90
26537;DHT22;14204;51.262;5.488;2022-10-16T04:58:46;14.50;99.90
26537;DHT22;14204;51.262;5.488;2022-10-16T05:01:12;14.60;99.90
26537;DHT22;14204;51.262;5.488;2022-10-16T05:03:37;14.50;99.90
26537;DHT22;14204;51.262;5.488;2022-10-16T05:06:05;14.60;99.90
26537;DHT22;14204;51.262;5.488;2022-10-16T05:08:31;14.50;99.90
26537;DHT22;14204;51.262;5.488;2022-10-16T05:10:56;14.50;99.90
26537;DHT22;14204;51.262;5.488;2022-10-16T05:13:22;14.60;99.90
26537;DHT22;14204;51.262;5.488;2022-10-16T05:15:48;14.50;99.90
26537;DHT22;14204;51.262;5.488;2022-10-16T05:18:14;14.50;99.90
26537;DHT22;14204;51.262;5.488;2022-10-16T05:20:41;14.50;99.90
26537;DHT22;14204;51.262;5.488;2022-10-16T05:23:07;14.50;99.90
26537;DHT22;14204;51.262;5.488;2022-10-16T05:25:33;14.40;99.90
26537;DHT22;14204;51.262;5.488;2022-10-16T05:27:58;14.50;99.90
26537;DHT22;14204;51.262;5.488;2022-10-16T05:30:24;14.50;99.90
26537;DHT22;14204;51.262;5.488;2022-10-16T05:32:50;14.50;99.90
26537;DHT22;14204;51.262;5.488;2022-10-16T05:35:17;14.50;99.90
26537;DHT22;14204;51.262;5.488;2022-10-16T05:37:43;14.40;99.90
26537;DHT22;14204;51.262;5.488;2022-10-16T05:40:09;14.40;99.90
26537;DHT22;14204;51.262;5.488;2022-10-16T05:42:35;14.40;99.90
26537;DHT22;14204;51.262;5.488;2022-10-16T05:45:00;14.40;99.90
26537;DHT22;14204;51.262;5.488;2022-10-16T05:47:26;14.40;99.90
26537;DHT22;14204;51.262;5.488;2022-10-16T05:49:52;14.30;99.90
26537;DHT22;14204;51.262;5.488;2022-10-16T05:52:18;14.30;99.90
26537;DHT22;14204;51.262;5.488;2022-10-16T05:54:44;14.40;99.90
26537;DHT22;14204;51.262;5.488;2022-10-16T05:57:09;14.30;99.90
26537;DHT22;14204;51.262;5.488;2022-10-16T05:59:35;14.30;99.90
26537;DHT22;14204;51.262;5.488;2022-10-16T06:02:01;14.30;99.90
26537;DHT22;14204;51.262;5.488;2022-10-16T06:04:26;14.30;99.90
26537;DHT22;14204;51.262;5.488;2022-10-16T06:06:52;14.30;99.90
26537;DHT22;14204;51.262;5.488;2022-10-16T06:09:17;14.30;99.90
26537;DHT22;14204;51.262;5.488;2022-10-16T06:11:43;14.30;99.90
26537;DHT22;14204;51.262;5.488;2022-10-16T06:14:09;14.30;99.90
26537;DHT22;14204;51.262;5.488;2022-10-16T06:16:35;14.20;99.90
26537;DHT22;14204;51.262;5.488;2022-10-16T06:19:02;14.20;99.90
26537;DHT22;14204;51.262;5.488;2022-10-16T06:21:29;14.20;99.90
26537;DHT22;14204;51.262;5.488;2022-10-16T06:23:56;14.20;99.90
26537;DHT22;14204;51.262;5.488;2022-10-16T06:26:24;14.20;99.90
26537;DHT22;14204;51.262;5.488;2022-10-16T06:28:50;14.20;99.90
26537;DHT22;14204;51.262;5.488;2022-10-16T06:31:16;14.20;99.90
26537;DHT22;14204;51.262;5.488;2022-10-16T06:33:41;14.30;99.90
26537;DHT22;14204;51.262;5.488;2022-10-16T06:36:10;14.30;99.90
26537;DHT22;14204;51.262;5.488;2022-10-16T06:38:37;14.30;99.90
26537;DHT22;14204;51.262;5.488;2022-10-16T06:41:03;14.40;99.90
26537;DHT22;14204;51.262;5.488;2022-10-16T06:43:30;14.30;99.90
26537;DHT22;14204;51.262;5.488;2022-10-16T06:46:01;14.20;99.90
26537;DHT22;14204;51.262;5.488;2022-10-16T06:48:28;14.20;99.90
26537;DHT22;14204;51.262;5.488;2022-10-16T06:53:28;14.20;99.90
26537;DHT22;14204;51.262;5.488;2022-10-16T06:55:53;14.20;99.90
26537;DHT22;14204;51.262;5.488;2022-10-16T06:58:19;14.30;99.90
26537;DHT22;14204;51.262;5.488;2022-10-16T07:00:45;14.30;99.90
26537;DHT22;14204;51.262;5.488;2022-10-16T07:03:11;14.30;99.90
26537;DHT22;14204;51.262;5.488;2022-10-16T07:05:41;14.30;99.90
26537;DHT22;14204;51.262;5.488;2022-10-16T07:08:07;14.30;99.90
26537;DHT22;14204;51.262;5.488;2022-10-16T07:10:33;14.20;99.90
26537;DHT22;14204;51.262;5.488;2022-10-16T07:12:59;14.30;99.90
26537;DHT22;14204;51.262;5.488;2022-10-16T07:15:26;14.40;99.90
26537;DHT22;14204;51.262;5.488;2022-10-16T07:17:52;14.40;99.90
26537;DHT22;14204;51.262;5.488;2022-10-16T07:20:17;14.40;99.90
26537;DHT22;14204;51.262;5.488;2022-10-16T07:22:43;14.40;99.90
26537;DHT22;14204;51.262;5.488;2022-10-16T07:25:09;14.50;99.90
26537;DHT22;14204;51.262;5.488;2022-10-16T07:27:34;14.50;99.90
26537;DHT22;14204;51.262;5.488;2022-10-16T07:30:00;14.50;99.90
26537;DHT22;14204;51.262;5.488;2022-10-16T07:32:26;14.50;99.90
26537;DHT22;14204;51.262;5.488;2022-10-16T07:34:52;14.60;99.90
26537;DHT22;14204;51.262;5.488;2022-10-16T07:37:18;14.60;99.90
26537;DHT22;14204;51.262;5.488;2022-10-16T07:39:44;14.50;99.90
26537;DHT22;14204;51.262;5.488;2022-10-16T07:42:09;14.60;99.90
26537;DHT22;14204;51.262;5.488;2022-10-16T07:44:35;14.70;99.90
26537;DHT22;14204;51.262;5.488;2022-10-16T07:47:01;14.60;99.90
26537;DHT22;14204;51.262;5.488;2022-10-16T07:49:27;14.70;99.90
26537;DHT22;14204;51.262;5.488;2022-10-16T07:51:52;14.80;99.90
26537;DHT22;14204;51.262;5.488;2022-10-16T07:54:18;14.80;99.90
26537;DHT22;14204;51.262;5.488;2022-10-16T07:56:44;14.90;99.90
26537;DHT22;14204;51.262;5.488;2022-10-16T07:59:10;14.90;99.90
26537;DHT22;14204;51.262;5.488;2022-10-16T08:01:35;15.00;99.90
26537;DHT22;14204;51.262;5.488;2022-10-16T08:04:01;15.00;99.90
26537;DHT22;14204;51.262;5.488;2022-10-16T08:06:26;15.00;99.90
26537;DHT22;14204;51.262;5.488;2022-10-16T08:08:52;15.20;99.90
26537;DHT22;14204;51.262;5.488;2022-10-16T08:11:18;15.20;99.90
26537;DHT22;14204;51.262;5.488;2022-10-16T08:13:43;15.20;99.90
26537;DHT22;14204;51.262;5.488;2022-10-16T08:16:09;15.30;99.90
26537;DHT22;14204;51.262;5.488;2022-10-16T08:18:39;15.40;99.90
26537;DHT22;14204;51.262;5.488;2022-10-16T08:21:06;15.40;99.90
26537;DHT22;14204;51.262;5.488;2022-10-16T08:23:32;15.50;99.90
26537;DHT22;14204;51.262;5.488;2022-10-16T08:26:04;15.50;99.90
26537;DHT22;14204;51.262;5.488;2022-10-16T08:28:29;15.50;99.90
26537;DHT22;14204;51.262;5.488;2022-10-16T08:30:55;15.70;99.90
26537;DHT22;14204;51.262;5.488;2022-10-16T08:33:22;15.70;99.90
26537;DHT22;14204;51.262;5.488;2022-10-16T08:35:52;15.70;99.90
26537;DHT22;14204;51.262;5.488;2022-10-16T08:38:19;15.80;99.90
26537;DHT22;14204;51.262;5.488;2022-10-16T08:40:44;15.90;99.90
26537;DHT22;14204;51.262;5.488;2022-10-16T08:45:58;16.00;99.90
26537;DHT22;14204;51.262;5.488;2022-10-16T08:48:51;16.00;99.90
26537;DHT22;14204;51.262;5.488;2022-10-16T08:51:24;16.10;99.90
26537;DHT22;14204;51.262;5.488;2022-10-16T08:53:54;16.20;99.90
26537;DHT22;14204;51.262;5.488;2022-10-16T08:56:21;16.20;99.90
26537;DHT22;14204;51.262;5.488;2022-10-16T08:58:47;16.30;99.90
26537;DHT22;14204;51.262;5.488;2022-10-16T09:01:16;16.40;99.90
26537;DHT22;14204;51.262;5.488;2022-10-16T09:12:17;16.70;99.90
26537;DHT22;14204;51.262;5.488;2022-10-16T09:22:47;17.30;99.90
26537;DHT22;14204;51.262;5.488;2022-10-16T09:25:21;17.40;99.90
26537;DHT22;14204;51.262;5.488;2022-10-16T09:27:48;17.60;99.90
26537;DHT22;14204;51.262;5.488;2022-10-16T09:30:18;17.60;99.90
26537;DHT22;14204;51.262;5.488;2022-10-16T09:32:45;17.70;99.90
26537;DHT22;14204;51.262;5.488;2022-10-16T09:35:20;17.70;99.90
26537;DHT22;14204;51.262;5.488;2022-10-16T09:37:49;17.60;99.90
26537;DHT22;14204;51.262;5.488;2022-10-16T09:40:31;17.80;99.90
26537;DHT22;14204;51.262;5.488;2022-10-16T09:43:12;17.80;99.90
26537;DHT22;14204;51.262;5.488;2022-10-16T09:45:40;17.80;99.90
26537;DHT22;14204;51.262;5.488;2022-10-16T09:48:13;17.80;99.90
26537;DHT22;14204;51.262;5.488;2022-10-16T09:50:43;17.90;99.90
26537;DHT22;14204;51.262;5.488;2022-10-16T09:53:13;18.10;99.90
26537;DHT22;14204;51.262;5.488;2022-10-16T09:55:52;18.20;99.90
26537;DHT22;14204;51.262;5.488;2022-10-16T09:58:21;18.20;99.90
26537;DHT22;14204;51.262;5.488;2022-10-16T10:00:50;18.30;99.90
26537;DHT22;14204;51.262;5.488;2022-10-16T10:03:46;18.40;99.90
26537;DHT22;14204;51.262;5.488;2022-10-16T10:06:25;18.50;99.90
26537;DHT22;14204;51.262;5.488;2022-10-16T10:09:05;18.70;99.90
26537;DHT22;14204;51.262;5.488;2022-10-16T10:11:55;18.80;99.90
26537;DHT22;14204;51.262;5.488;2022-10-16T10:27:44;19.40;99.90
26537;DHT22;14204;51.262;5.488;2022-10-16T10:52:13;20.40;99.90
26537;DHT22;14204;51.262;5.488;2022-10-16T10:54:58;20.30;99.90
26537;DHT22;14204;51.262;5.488;2022-10-16T10:57:48;20.10;99.90
26537;DHT22;14204;51.262;5.488;2022-10-16T11:05:49;20.10;99.90
26537;DHT22;14204;51.262;5.488;2022-10-16T11:08:25;20.10;99.90
26537;DHT22;14204;51.262;5.488;2022-10-16T11:10:57;20.10;99.90
26537;DHT22;14204;51.262;5.488;2022-10-16T11:13:26;20.30;99.90
26537;DHT22;14204;51.262;5.488;2022-10-16T11:15:59;20.40;99.90
26537;DHT22;14204;51.262;5.488;2022-10-16T11:18:28;20.50;99.90
26537;DHT22;14204;51.262;5.488;2022-10-16T11:21:04;20.60;99.90
26537;DHT22;14204;51.262;5.488;2022-10-16T11:26:25;20.80;99.90
26537;DHT22;14204;51.262;5.488;2022-10-16T11:28:56;20.80;99.90
26537;DHT22;14204;51.262;5.488;2022-10-16T11:31:40;20.80;99.90
26537;DHT22;14204;51.262;5.488;2022-10-16T11:34:32;20.90;99.90
26537;DHT22;14204;51.262;5.488;2022-10-16T11:37:10;21.10;99.90
26537;DHT22;14204;51.262;5.488;2022-10-16T11:39:38;21.20;99.90
26537;DHT22;14204;51.262;5.488;2022-10-16T11:42:10;21.20;99.90
26537;DHT22;14204;51.262;5.488;2022-10-16T11:45:12;21.00;99.90
26537;DHT22;14204;51.262;5.488;2022-10-16T11:54:10;20.40;99.90
26537;DHT22;14204;51.262;5.488;2022-10-16T11:56:39;20.00;99.90
26537;DHT22;14204;51.262;5.488;2022-10-16T12:01:49;19.80;99.90
26537;DHT22;14204;51.262;5.488;2022-10-16T12:04:23;19.90;99.90
26537;DHT22;14204;51.262;5.488;2022-10-16T12:07:01;20.10;99.90
26537;DHT22;14204;51.262;5.488;2022-10-16T12:09:32;20.10;99.90
26537;DHT22;14204;51.262;5.488;2022-10-16T12:12:00;20.10;99.90
26537;DHT22;14204;51.262;5.488;2022-10-16T12:17:03;20.20;99.90
26537;DHT22;14204;51.262;5.488;2022-10-16T12:19:32;20.10;99.90
26537;DHT22;14204;51.262;5.488;2022-10-16T12:21:59;20.20;99.90
26537;DHT22;14204;51.262;5.488;2022-10-16T12:24:38;20.00;99.90
26537;DHT22;14204;51.262;5.488;2022-10-16T12:27:17;20.20;99.90
26537;DHT22;14204;51.262;5.488;2022-10-16T12:29:45;20.50;99.90
26537;DHT22;14204;51.262;5.488;2022-10-16T12:32:32;20.50;99.90
26537;DHT22;14204;51.262;5.488;2022-10-16T12:35:02;20.60;99.90
26537;DHT22;14204;51.262;5.488;2022-10-16T12:37:33;20.30;99.90
26537;DHT22;14204;51.262;5.488;2022-10-16T12:40:04;20.20;99.90
26537;DHT22;14204;51.262;5.488;2022-10-16T12:42:37;19.90;99.90
26537;DHT22;14204;51.262;5.488;2022-10-16T12:45:31;20.00;99.90
26537;DHT22;14204;51.262;5.488;2022-10-16T12:47:59;20.10;99.90
26537;DHT22;14204;51.262;5.488;2022-10-16T12:50:27;20.10;99.90
26537;DHT22;14204;51.262;5.488;2022-10-16T12:52:53;20.00;99.90
26537;DHT22;14204;51.262;5.488;2022-10-16T12:55:20;19.90;99.90
26537;DHT22;14204;51.262;5.488;2022-10-16T13:00:56;19.80;99.90
26537;DHT22;14204;51.262;5.488;2022-10-16T13:12:06;19.50;99.90
26537;DHT22;14204;51.262;5.488;2022-10-16T13:17:42;19.60;99.90
26537;DHT22;14204;51.262;5.488;2022-10-16T13:25:39;19.60;99.90
26537;DHT22;14204;51.262;5.488;2022-10-16T13:28:08;19.60;99.90
26537;DHT22;14204;51.262;5.488;2022-10-16T13:30:51;19.50;99.90
26537;DHT22;14204;51.262;5.488;2022-10-16T13:33:19;19.40;99.90
26537;DHT22;14204;51.262;5.488;2022-10-16T13:35:51;19.40;99.90
26537;DHT22;14204;51.262;5.488;2022-10-16T13:38:19;19.40;99.90
26537;DHT22;14204;51.262;5.488;2022-10-16T13:43:18;19.50;99.90
26537;DHT22;14204;51.262;5.488;2022-10-16T13:46:03;19.50;99.90
26537;DHT22;14204;51.262;5.488;2022-10-16T13:48:30;19.50;99.90
26537;DHT22;14204;51.262;5.488;2022-10-16T13:51:14;19.40;99.90
26537;DHT22;14204;51.262;5.488;2022-10-16T13:53:41;19.50;99.90
26537;DHT22;14204;51.262;5.488;2022-10-16T13:56:17;19.40;99.90
26537;DHT22;14204;51.262;5.488;2022-10-16T13:58:43;19.30;99.90
26537;DHT22;14204;51.262;5.488;2022-10-16T14:01:25;19.30;99.90
26537;DHT22;14204;51.262;5.488;2022-10-16T14:03:52;19.30;99.90
26537;DHT22;14204;51.262;5.488;2022-10-16T14:06:22;19.30;99.90
26537;DHT22;14204;51.262;5.488;2022-10-16T14:08:59;19.30;99.90
26537;DHT22;14204;51.262;5.488;2022-10-16T14:11:25;19.10;99.90
26537;DHT22;14204;51.262;5.488;2022-10-16T14:13:52;19.20;99.90
26537;DHT22;14204;51.262;5.488;2022-10-16T14:16:23;19.10;99.90
26537;DHT22;14204;51.262;5.488;2022-10-16T14:19:04;19.20;99.90
26537;DHT22;14204;51.262;5.488;2022-10-16T14:21:33;19.10;99.90
26537;DHT22;14204;51.262;5.488;2022-10-16T14:23:59;19.20;99.90
26537;DHT22;14204;51.262;5.488;2022-10-16T14:26:27;19.20;99.90
26537;DHT22;14204;51.262;5.488;2022-10-16T14:29:17;19.20;99.90
26537;DHT22;14204;51.262;5.488;2022-10-16T14:32:00;19.10;99.90
26537;DHT22;14204;51.262;5.488;2022-10-16T14:34:35;19.10;99.90
26537;DHT22;14204;51.262;5.488;2022-10-16T14:37:08;19.10;99.90
26537;DHT22;14204;51.262;5.488;2022-10-16T14:39:35;19.10;99.90
26537;DHT22;14204;51.262;5.488;2022-10-16T14:42:01;19.10;99.90
26537;DHT22;14204;51.262;5.488;2022-10-16T14:44:30;19.10;99.90
26537;DHT22;14204;51.262;5.488;2022-10-16T14:46:57;19.10;99.90
26537;DHT22;14204;51.262;5.488;2022-10-16T14:49:25;19.10;99.90
26537;DHT22;14204;51.262;5.488;2022-10-16T14:51:51;19.00;99.90
26537;DHT22;14204;51.262;5.488;2022-10-16T14:54:18;19.00;99.90
26537;DHT22;14204;51.262;5.488;2022-10-16T14:56:56;19.20;99.90
26537;DHT22;14204;51.262;5.488;2022-10-16T14:59:33;19.20;99.90
26537;DHT22;14204;51.262;5.488;2022-10-16T15:02:09;19.30;99.90
26537;DHT22;14204;51.262;5.488;2022-10-16T15:04:39;19.20;99.90
26537;DHT22;14204;51.262;5.488;2022-10-16T15:07:06;19.30;99.90
26537;DHT22;14204;51.262;5.488;2022-10-16T15:09:32;19.40;99.90
26537;DHT22;14204;51.262;5.488;2022-10-16T15:11:58;19.30;99.90
26537;DHT22;14204;51.262;5.488;2022-10-16T15:14:23;19.30;99.90
26537;DHT22;14204;51.262;5.488;2022-10-16T15:16:49;19.30;99.90
26537;DHT22;14204;51.262;5.488;2022-10-16T15:19:14;19.30;99.90
26537;DHT22;14204;51.262;5.488;2022-10-16T15:21:40;19.20;99.90
26537;DHT22;14204;51.262;5.488;2022-10-16T15:24:09;19.10;99.90
26537;DHT22;14204;51.262;5.488;2022-10-16T15:26:36;19.00;99.90
26537;DHT22;14204;51.262;5.488;2022-10-16T15:29:02;19.00;99.90
26537;DHT22;14204;51.262;5.488;2022-10-16T15:31:27;19.10;99.90
26537;DHT22;14204;51.262;5.488;2022-10-16T15:33:54;19.10;99.90
26537;DHT22;14204;51.262;5.488;2022-10-16T15:36:33;19.10;99.90
26537;DHT22;14204;51.262;5.488;2022-10-16T15:39:15;19.00;99.90
26537;DHT22;14204;51.262;5.488;2022-10-16T15:41:42;18.90;99.90
26537;DHT22;14204;51.262;5.488;2022-10-16T15:44:08;19.00;99.90
26537;DHT22;14204;51.262;5.488;2022-10-16T15:46:34;18.90;99.90
26537;DHT22;14204;51.262;5.488;2022-10-16T15:49:00;18.90;99.90
26537;DHT22;14204;51.262;5.488;2022-10-16T15:51:26;18.90;99.90
26537;DHT22;14204;51.262;5.488;2022-10-16T15:53:59;18.90;99.90
26537;DHT22;14204;51.262;5.488;2022-10-16T15:56:27;18.90;99.90
26537;DHT22;14204;51.262;5.488;2022-10-16T15:58:54;18.80;99.90
26537;DHT22;14204;51.262;5.488;2022-10-16T16:01:20;18.80;99.90
26537;DHT22;14204;51.262;5.488;2022-10-16T16:03:46;18.60;99.90
26537;DHT22;14204;51.262;5.488;2022-10-16T16:06:13;18.60;99.90
26537;DHT22;14204;51.262;5.488;2022-10-16T16:08:40;18.70;99.90
26537;DHT22;14204;51.262;5.488;2022-10-16T16:11:15;18.70;99.90
26537;DHT22;14204;51.262;5.488;2022-10-16T16:13:42;18.80;99.90
26537;DHT22;14204;51.262;5.488;2022-10-16T16:16:17;18.80;99.90
26537;DHT22;14204;51.262;5.488;2022-10-16T16:18:45;18.70;99.90
26537;DHT22;14204;51.262;5.488;2022-10-16T16:21:12;18.60;99.90
26537;DHT22;14204;51.262;5.488;2022-10-16T16:23:38;18.60;99.90
26537;DHT22;14204;51.262;5.488;2022-10-16T16:28:32;18.60;99.90
26537;DHT22;14204;51.262;5.488;2022-10-16T16:30:57;18.50;99.90
26537;DHT22;14204;51.262;5.488;2022-10-16T16:33:23;18.40;99.90
26537;DHT22;14204;51.262;5.488;2022-10-16T16:35:49;18.40;99.90
26537;DHT22;14204;51.262;5.488;2022-10-16T16:38:15;18.50;99.90
26537;DHT22;14204;51.262;5.488;2022-10-16T16:40:40;18.40;99.90
26537;DHT22;14204;51.262;5.488;2022-10-16T16:43:06;18.30;99.90
26537;DHT22;14204;51.262;5.488;2022-10-16T16:45:35;18.30;99.90
26537;DHT22;14204;51.262;5.488;2022-10-16T16:48:01;18.30;99.90
26537;DHT22;14204;51.262;5.488;2022-10-16T16:50:26;18.20;99.90
26537;DHT22;14204;51.262;5.488;2022-10-16T16:52:52;18.20;99.90
26537;DHT22;14204;51.262;5.488;2022-10-16T16:55:18;18.20;99.90
26537;DHT22;14204;51.262;5.488;2022-10-16T16:57:47;18.10;99.90
26537;DHT22;14204;51.262;5.488;2022-10-16T17:00:13;18.20;99.90
26537;DHT22;14204;51.262;5.488;2022-10-16T17:02:39;18.20;99.90
26537;DHT22;14204;51.262;5.488;2022-10-16T17:05:08;18.10;99.90
26537;DHT22;14204;51.262;5.488;2022-10-16T17:07:34;18.10;99.90
26537;DHT22;14204;51.262;5.488;2022-10-16T17:10:01;18.00;99.90
26537;DHT22;14204;51.262;5.488;2022-10-16T17:12:27;18.00;99.90
26537;DHT22;14204;51.262;5.488;2022-10-16T17:14:53;18.00;99.90
26537;DHT22;14204;51.262;5.488;2022-10-16T17:17:19;18.00;99.90
26537;DHT22;14204;51.262;5.488;2022-10-16T17:19:44;18.00;99.90
26537;DHT22;14204;51.262;5.488;2022-10-16T17:22:10;17.90;99.90
26537;DHT22;14204;51.262;5.488;2022-10-16T17:24:35;17.90;99.90
26537;DHT22;14204;51.262;5.488;2022-10-16T17:27:01;17.90;99.90
26537;DHT22;14204;51.262;5.488;2022-10-16T17:29:27;17.90;99.90
26537;DHT22;14204;51.262;5.488;2022-10-16T17:31:52;17.90;99.90